createdAt,value
2022-10-17T00:01:47.805Z,98697.44
2022-10-17T00:04:15.244Z,98696.06
2022-10-17T00:06:42.714Z,98694.59
2022-10-17T00:09:10.373Z,98697.41
2022-10-17T00:11:38.004Z,98700.16
2022-10-17T00:14:05.175Z,98698.44
2022-10-17T00:16:37.150Z,98697.50
2022-10-17T00:19:06.095Z,98697.50
2022-10-17T00:21:34.813Z,98707.75
2022-10-17T00:24:02.256Z,98710.06
2022-10-17T00:26:30.110Z,98711.84
2022-10-17T00:28:57.900Z,98703.69
2022-10-17T00:31:25.376Z,98702.50
2022-10-17T00:33:52.561Z,98701.09
2022-10-17T00:36:22.456Z,98709.88
2022-10-17T00:38:52.678Z,98710.81
2022-10-17T00:41:21.981Z,98710.41
2022-10-17T00:43:53.019Z,98706.16
2022-10-17T00:46:20.830Z,98715.44
2022-10-17T00:48:50.429Z,98711.44
2022-10-17T00:51:21.257Z,98711.75
2022-10-17T00:53:49.048Z,98711.53
2022-10-17T00:56:16.539Z,98714.28
2022-10-17T00:58:43.685Z,98710.09
2022-10-17T01:01:10.907Z,98713.16
2022-10-17T01:03:38.099Z,98713.97
2022-10-17T01:06:05.435Z,98706.69
2022-10-17T01:08:32.822Z,98713.00
2022-10-17T01:11:02.501Z,98719.00
2022-10-17T01:13:48.455Z,98719.00
2022-10-17T01:16:37.248Z,98723.75
2022-10-17T01:19:10.220Z,98720.28
2022-10-17T01:21:48.801Z,98722.06
2022-10-17T01:24:28.189Z,98723.84
2022-10-17T01:27:21.376Z,98721.84
2022-10-17T01:30:03.763Z,98717.16
2022-10-17T01:32:50.247Z,98727.19
2022-10-17T01:35:27.161Z,98723.91
2022-10-17T01:38:29.679Z,98716.41
2022-10-17T01:41:16.780Z,98720.41
2022-10-17T01:43:54.733Z,98716.19
2022-10-17T01:46:43.931Z,98714.94
2022-10-17T01:49:11.909Z,98722.69
2022-10-17T01:51:47.473Z,98710.25
2022-10-17T01:54:17.608Z,98710.75
2022-10-17T01:56:46.009Z,98704.09
2022-10-17T01:59:24.651Z,98708.81
2022-10-17T02:01:53.923Z,98704.16
2022-10-17T02:04:21.104Z,98707.94
2022-10-17T02:06:48.247Z,98705.66
2022-10-17T02:09:21.223Z,98708.41
2022-10-17T02:11:55.709Z,98701.97
2022-10-17T02:14:25.967Z,98705.22
2022-10-17T02:17:24.561Z,98704.50
2022-10-17T02:19:54.596Z,98693.53
2022-10-17T02:22:41.500Z,98704.50
2022-10-17T02:25:34.998Z,98692.31
2022-10-17T02:28:30.562Z,98696.09
2022-10-17T02:31:11.315Z,98701.84
2022-10-17T02:33:51.637Z,98697.63
2022-10-17T02:36:25.025Z,98700.91
2022-10-17T02:38:52.812Z,98698.38
2022-10-17T02:41:20.576Z,98697.19
2022-10-17T02:43:48.890Z,98692.97
2022-10-17T02:46:21.327Z,98695.47
2022-10-17T02:48:51.699Z,98700.72
2022-10-17T02:51:40.970Z,98692.28
2022-10-17T02:54:21.158Z,98693.81
2022-10-17T02:56:55.137Z,98696.13
2022-10-17T02:59:23.203Z,98705.31
2022-10-17T03:01:51.791Z,98704.34
2022-10-17T03:04:19.489Z,98716.81
2022-10-17T03:06:47.717Z,98705.09
2022-10-17T03:09:15.259Z,98703.81
2022-10-17T03:11:42.467Z,98704.88
2022-10-17T03:14:09.741Z,98703.59
2022-10-17T03:16:36.889Z,98712.84
2022-10-17T03:19:04.131Z,98715.16
2022-10-17T03:21:31.330Z,98713.16
2022-10-17T03:23:58.479Z,98707.19
2022-10-17T03:26:25.650Z,98711.94
2022-10-17T03:28:54.483Z,98711.72
2022-10-17T03:31:22.675Z,98708.75
2022-10-17T03:33:49.780Z,98706.53
2022-10-17T03:36:18.571Z,98723.72
2022-10-17T03:38:47.267Z,98725.97
2022-10-17T03:41:14.598Z,98717.06
2022-10-17T03:43:41.841Z,98724.31
2022-10-17T03:46:09.136Z,98716.63
2022-10-17T03:48:36.270Z,98730.09
2022-10-17T03:51:05.743Z,98723.34
2022-10-17T03:53:33.230Z,98731.81
2022-10-17T03:56:17.905Z,98735.75
2022-10-17T03:58:45.162Z,98734.72
2022-10-17T04:01:13.997Z,98738.44
2022-10-17T04:03:41.414Z,98739.91
2022-10-17T04:06:13.443Z,98736.44
2022-10-17T04:08:42.564Z,98737.69
2022-10-17T04:11:11.796Z,98734.69
2022-10-17T04:13:39.136Z,98733.94
2022-10-17T04:16:09.152Z,98745.13
2022-10-17T04:18:36.266Z,98739.13
2022-10-17T04:21:05.064Z,98729.44
2022-10-17T04:23:32.968Z,98724.69
2022-10-17T04:26:01.007Z,98735.66
2022-10-17T04:28:28.462Z,98737.44
2022-10-17T04:31:00.322Z,98741.88
2022-10-17T04:33:27.520Z,98748.84
2022-10-17T04:35:58.235Z,98747.09
2022-10-17T04:38:28.474Z,98747.31
2022-10-17T04:41:03.042Z,98743.34
2022-10-17T04:43:31.406Z,98735.59
2022-10-17T04:45:59.450Z,98746.31
2022-10-17T04:48:26.863Z,98752.56
2022-10-17T04:50:58.761Z,98749.06
2022-10-17T04:53:27.087Z,98751.53
2022-10-17T04:55:54.600Z,98749.84
2022-10-17T04:58:22.143Z,98762.03
2022-10-17T05:00:49.474Z,98764.03
2022-10-17T05:03:17.223Z,98763.28
2022-10-17T05:05:44.463Z,98761.63
2022-10-17T05:08:12.155Z,98757.41
2022-10-17T05:10:40.853Z,98764.94
2022-10-17T05:13:08.708Z,98752.69
2022-10-17T05:15:36.736Z,98771.44
2022-10-17T05:18:05.246Z,98773.47
2022-10-17T05:20:32.560Z,98769.25
2022-10-17T05:23:00.144Z,98776.72
2022-10-17T05:25:27.437Z,98775.25
2022-10-17T05:27:54.779Z,98780.53
2022-10-17T05:30:22.030Z,98779.81
2022-10-17T05:32:52.516Z,98783.50
2022-10-17T05:35:19.684Z,98787.50
2022-10-17T05:37:47.096Z,98787.28
2022-10-17T05:40:14.423Z,98793.28
2022-10-17T05:42:46.562Z,98796.50
2022-10-17T05:45:14.336Z,98798.03
2022-10-17T05:47:41.693Z,98793.31
2022-10-17T05:50:09.306Z,98795.53
2022-10-17T05:52:36.839Z,98796.56
2022-10-17T05:55:05.767Z,98793.81
2022-10-17T05:57:32.906Z,98799.81
2022-10-17T06:00:01.007Z,98798.31
2022-10-17T06:02:28.357Z,98807.00
2022-10-17T06:04:55.915Z,98807.97
2022-10-17T06:07:23.032Z,98806.25
2022-10-17T06:09:50.395Z,98807.97
2022-10-17T06:12:20.953Z,98812.94
2022-10-17T06:14:48.257Z,98817.69
2022-10-17T06:17:18.240Z,98811.22
2022-10-17T06:19:45.450Z,98808.97
2022-10-17T06:22:12.627Z,98819.66
2022-10-17T06:24:39.797Z,98818.41
2022-10-17T06:27:10.986Z,98826.09
2022-10-17T06:29:39.610Z,98832.81
2022-10-17T06:32:09.832Z,98835.28
2022-10-17T06:34:40.254Z,98840.50
2022-10-17T06:37:07.512Z,98838.72
2022-10-17T06:39:35.917Z,98840.44
2022-10-17T06:42:04.106Z,98842.91
2022-10-17T06:44:31.979Z,98840.16
2022-10-17T06:46:59.645Z,98850.09
2022-10-17T06:49:27.921Z,98841.81
2022-10-17T06:51:55.106Z,98843.03
2022-10-17T06:54:22.228Z,98846.47
2022-10-17T06:56:49.339Z,98841.19
2022-10-17T06:59:16.459Z,98848.88
2022-10-17T07:01:46.247Z,98846.84
2022-10-17T07:04:14.786Z,98852.50
2022-10-17T07:06:41.999Z,98855.44
2022-10-17T07:09:09.629Z,98856.59
2022-10-17T07:11:37.109Z,98858.75
2022-10-17T07:14:04.400Z,98858.09
2022-10-17T07:16:31.539Z,98858.44
2022-10-17T07:18:58.611Z,98860.00
2022-10-17T07:21:25.918Z,98864.56
2022-10-17T07:23:53.057Z,98867.84
2022-10-17T07:26:20.391Z,98858.84
2022-10-17T07:28:52.661Z,98862.53
2022-10-17T07:31:20.812Z,98851.72
2022-10-17T07:33:48.662Z,98857.69
2022-10-17T07:36:16.211Z,98857.84
2022-10-17T07:38:43.425Z,98861.78
2022-10-17T07:41:13.115Z,98869.22
2022-10-17T07:43:42.991Z,98855.56
2022-10-17T07:46:11.522Z,98862.00
2022-10-17T07:48:39.737Z,98862.44
2022-10-17T07:51:09.373Z,98859.84
2022-10-17T07:53:41.757Z,98856.72
2022-10-17T07:56:11.503Z,98861.66
2022-10-17T07:58:38.992Z,98860.00
2022-10-17T08:01:10.887Z,98866.41
2022-10-17T08:03:42.033Z,98855.50
2022-10-17T08:06:09.256Z,98863.94
2022-10-17T08:08:36.366Z,98859.44
2022-10-17T08:11:08.274Z,98855.94
2022-10-17T08:13:36.114Z,98856.25
2022-10-17T08:16:07.436Z,98864.44
2022-10-17T08:18:35.995Z,98871.97
2022-10-17T08:21:06.460Z,98860.97
2022-10-17T08:23:33.583Z,98861.72
2022-10-17T08:26:01.900Z,98863.00
2022-10-17T08:28:29.109Z,98868.19
2022-10-17T08:31:04.536Z,98860.91
2022-10-17T08:33:33.167Z,98867.72
2022-10-17T08:36:01.453Z,98869.53
2022-10-17T08:38:33.263Z,98869.09
2022-10-17T08:41:05.747Z,98872.28
2022-10-17T08:43:42.040Z,98866.81
2022-10-17T08:46:09.750Z,98868.94
2022-10-17T08:48:44.045Z,98871.41
2022-10-17T08:51:23.805Z,98868.75
2022-10-17T08:54:14.759Z,98853.63
2022-10-17T08:56:49.176Z,98860.31
2022-10-17T08:59:30.048Z,98865.56
2022-10-17T09:02:12.777Z,98872.31
2022-10-17T09:05:15.407Z,98873.03
2022-10-17T09:08:19.925Z,98868.56
2022-10-17T09:10:47.064Z,98871.88
2022-10-17T09:13:48.372Z,98866.09
2022-10-17T09:16:30.256Z,98861.38
2022-10-17T09:19:10.155Z,98854.44
2022-10-17T09:21:47.432Z,98865.06
2022-10-17T09:24:48.548Z,98873.28
2022-10-17T09:27:31.126Z,98873.34
2022-10-17T09:30:17.170Z,98870.88
2022-10-17T09:33:00.764Z,98864.00
2022-10-17T09:35:28.564Z,98866.81
2022-10-17T09:37:55.951Z,98862.84
2022-10-17T09:40:33.653Z,98868.31
2022-10-17T09:43:03.772Z,98864.06
2022-10-17T09:45:37.580Z,98867.44
2022-10-17T09:48:11.353Z,98863.06
2022-10-17T09:50:38.717Z,98874.06
2022-10-17T09:53:20.952Z,98862.03
2022-10-17T09:55:51.777Z,98870.09
2022-10-17T09:58:20.640Z,98869.38
2022-10-17T10:00:49.196Z,98868.63
2022-10-17T10:03:22.349Z,98870.69
2022-10-17T10:06:14.632Z,98868.03
2022-10-17T10:08:51.521Z,98861.66
2022-10-17T10:11:24.042Z,98861.50
2022-10-17T10:13:51.508Z,98866.16
2022-10-17T10:16:42.680Z,98867.16
2022-10-17T10:19:28.992Z,98859.31
2022-10-17T10:21:58.846Z,98863.25
2022-10-17T10:24:30.859Z,98868.06
2022-10-17T10:27:03.356Z,98862.75
2022-10-17T10:29:31.210Z,98861.66
2022-10-17T10:32:42.665Z,98865.88
2022-10-17T10:35:22.072Z,98865.22
2022-10-17T10:37:55.235Z,98847.50
2022-10-17T10:40:43.949Z,98863.75
2022-10-17T10:43:29.905Z,98855.88
2022-10-17T10:45:57.321Z,98856.44
2022-10-17T10:48:27.168Z,98856.97
2022-10-17T10:50:57.827Z,98849.81
2022-10-17T10:53:55.349Z,98841.44
2022-10-17T10:56:38.159Z,98842.56
2022-10-17T10:59:08.178Z,98837.25
2022-10-17T11:01:54.024Z,98837.28
2022-10-17T11:04:58.256Z,98831.56
2022-10-17T11:07:33.837Z,98831.56
2022-10-17T11:10:19.393Z,98836.81
2022-10-17T11:12:52.787Z,98828.16
2022-10-17T11:15:39.920Z,98830.59
2022-10-17T11:18:10.088Z,98822.19
2022-10-17T11:20:59.740Z,98815.34
2022-10-17T11:23:41.673Z,98817.28
2022-10-17T11:26:12.709Z,98820.59
2022-10-17T11:28:39.941Z,98815.22
2022-10-17T11:31:12.009Z,98809.94
2022-10-17T11:34:01.455Z,98804.47
2022-10-17T11:36:35.372Z,98805.69
2022-10-17T11:39:08.617Z,98805.09
2022-10-17T11:41:41.452Z,98788.97
2022-10-17T11:44:41.910Z,98805.56
2022-10-17T11:47:30.056Z,98806.16
2022-10-17T11:53:00.765Z,98808.06
2022-10-17T11:55:29.723Z,98796.75
2022-10-17T11:58:01.555Z,98789.19
2022-10-17T12:01:06.318Z,98788.78
2022-10-17T12:03:48.647Z,98794.63
2022-10-17T12:06:31.161Z,98796.81
2022-10-17T12:09:01.369Z,98790.81
2022-10-17T12:11:50.825Z,98782.97
2022-10-17T12:14:39.146Z,98780.25
2022-10-17T12:17:22.869Z,98780.38
2022-10-17T12:19:50.065Z,98774.75
2022-10-17T12:22:22.866Z,98776.84
2022-10-17T12:25:17.137Z,98763.41
2022-10-17T12:27:46.035Z,98770.72
2022-10-17T12:30:13.541Z,98769.59
2022-10-17T12:33:06.255Z,98758.50
2022-10-17T12:35:36.370Z,98766.22
2022-10-17T12:38:18.297Z,98753.50
2022-10-17T12:40:49.026Z,98763.66
2022-10-17T12:43:16.470Z,98773.19
2022-10-17T12:45:53.334Z,98753.44
2022-10-17T12:48:40.667Z,98761.97
2022-10-17T12:54:12.181Z,98758.44
2022-10-17T12:56:42.123Z,98755.63
2022-10-17T12:59:24.943Z,98752.81
2022-10-17T13:01:56.615Z,98757.59
2022-10-17T13:04:24.210Z,98749.66
2022-10-17T13:06:54.306Z,98754.53
2022-10-17T13:09:31.676Z,98754.78
2022-10-17T13:12:01.763Z,98756.97
2022-10-17T13:14:29.817Z,98753.31
2022-10-17T13:16:57.407Z,98761.72
2022-10-17T13:19:29.536Z,98755.50
2022-10-17T13:22:05.973Z,98762.97
2022-10-17T13:24:36.152Z,98762.75
2022-10-17T13:27:04.765Z,98765.22
2022-10-17T13:29:33.017Z,98756.44
2022-10-17T13:32:04.614Z,98758.91
2022-10-17T13:34:33.342Z,98757.44
2022-10-17T13:37:02.705Z,98769.19
2022-10-17T13:39:54.359Z,98773.09
2022-10-17T13:42:27.678Z,98765.19
2022-10-17T13:44:56.258Z,98769.00
2022-10-17T13:47:25.933Z,98764.22
2022-10-17T13:49:55.366Z,98774.00
2022-10-17T13:52:25.935Z,98768.88
2022-10-17T13:54:53.877Z,98766.31
2022-10-17T13:57:28.477Z,98761.84
2022-10-17T14:00:01.353Z,98763.78
2022-10-17T14:02:33.100Z,98768.75
2022-10-17T14:05:17.209Z,98765.84
2022-10-17T14:08:15.064Z,98766.47
2022-10-17T14:10:44.259Z,98762.94
2022-10-17T14:13:25.777Z,98765.63
2022-10-17T14:15:54.378Z,98767.06
2022-10-17T14:18:25.309Z,98762.94
2022-10-17T14:23:42.495Z,98757.06
2022-10-17T14:26:16.000Z,98759.75
2022-10-17T14:28:45.548Z,98763.06
2022-10-17T14:31:25.694Z,98763.44
2022-10-17T14:33:54.213Z,98757.09
2022-10-17T14:36:31.170Z,98764.03
2022-10-17T14:38:58.776Z,98764.78
2022-10-17T14:41:44.613Z,98765.63
2022-10-17T14:44:32.989Z,98767.84
2022-10-17T14:47:18.312Z,98770.09
2022-10-17T14:49:51.514Z,98775.72
2022-10-17T14:52:21.752Z,98779.94
2022-10-17T14:54:50.087Z,98780.03
2022-10-17T14:57:19.773Z,98778.56
2022-10-17T14:59:55.349Z,98778.50
2022-10-17T15:02:28.675Z,98785.13
2022-10-17T15:04:56.147Z,98781.88
2022-10-17T15:07:23.988Z,98776.25
2022-10-17T15:09:52.933Z,98778.84
2022-10-17T15:12:25.246Z,98783.63
2022-10-17T15:14:53.560Z,98786.91
2022-10-17T15:17:26.707Z,98795.06
2022-10-17T15:19:53.984Z,98798.53
2022-10-17T15:22:21.145Z,98797.13
2022-10-17T15:24:48.258Z,98809.22
2022-10-17T15:27:21.651Z,98817.47
2022-10-17T15:29:49.612Z,98827.63
2022-10-17T15:32:16.872Z,98823.97
2022-10-17T15:34:44.287Z,98828.56
2022-10-17T15:37:22.878Z,98825.75
2022-10-17T15:39:54.070Z,98839.38
2022-10-17T15:42:23.069Z,98842.84
2022-10-17T15:44:50.487Z,98847.94
2022-10-17T15:47:25.319Z,98851.56
2022-10-17T15:49:53.845Z,98849.47
2022-10-17T15:52:21.724Z,98854.22
2022-10-17T15:54:49.021Z,98859.28
2022-10-17T15:57:25.118Z,98860.13
2022-10-17T15:59:53.132Z,98861.94
2022-10-17T16:02:22.398Z,98867.38
2022-10-17T16:04:50.666Z,98859.66
2022-10-17T16:07:18.877Z,98864.94
2022-10-17T16:09:46.184Z,98871.16
2022-10-17T16:12:17.344Z,98881.63
2022-10-17T16:14:44.860Z,98870.91
2022-10-17T16:17:15.901Z,98875.81
2022-10-17T16:19:43.496Z,98883.13
2022-10-17T16:22:36.522Z,98880.63
2022-10-17T16:25:19.678Z,98887.34
2022-10-17T16:27:48.372Z,98888.00
2022-10-17T16:30:16.800Z,98879.91
2022-10-17T16:32:44.181Z,98888.31
2022-10-17T16:35:37.884Z,98887.56
2022-10-17T16:38:06.652Z,98890.22
2022-10-17T16:40:34.158Z,98892.31
2022-10-17T16:43:01.406Z,98892.94
2022-10-17T16:45:28.759Z,98888.50
2022-10-17T16:47:55.986Z,98892.09
2022-10-17T16:50:24.447Z,98887.69
2022-10-17T16:52:51.560Z,98894.19
2022-10-17T16:55:19.095Z,98896.38
2022-10-17T16:57:48.838Z,98904.19
2022-10-17T17:00:17.149Z,98899.06
2022-10-17T17:02:44.896Z,98900.56
2022-10-17T17:05:14.565Z,98897.94
2022-10-17T17:07:42.099Z,98911.66
2022-10-17T17:10:09.490Z,98913.16
2022-10-17T17:12:36.989Z,98917.59
2022-10-17T17:15:04.663Z,98927.38
2022-10-17T17:17:48.828Z,98919.81
2022-10-17T17:20:18.463Z,98915.44
2022-10-17T17:22:45.566Z,98909.53
2022-10-17T17:25:12.708Z,98921.72
2022-10-17T17:27:39.857Z,98912.50
2022-10-17T17:30:07.837Z,98907.69
2022-10-17T17:32:34.999Z,98915.63
2022-10-17T17:35:02.121Z,98923.44
2022-10-17T17:37:29.498Z,98911.78
2022-10-17T17:39:56.908Z,98914.00
2022-10-17T17:42:24.299Z,98912.72
2022-10-17T17:44:52.158Z,98908.47
2022-10-17T17:47:20.082Z,98914.75
2022-10-17T17:49:47.655Z,98919.94
2022-10-17T17:52:14.768Z,98924.00
2022-10-17T17:54:41.914Z,98921.75
2022-10-17T17:57:09.115Z,98918.47
2022-10-17T17:59:37.920Z,98916.78
2022-10-17T18:02:06.794Z,98921.00
2022-10-17T18:04:34.411Z,98924.13
2022-10-17T18:07:01.535Z,98932.25
2022-10-17T18:09:28.682Z,98930.22
2022-10-17T18:11:55.784Z,98927.81
2022-10-17T18:14:23.959Z,98929.09
2022-10-17T18:16:51.176Z,98923.94
2022-10-17T18:19:18.461Z,98924.28
2022-10-17T18:21:45.610Z,98929.28
2022-10-17T18:24:12.787Z,98938.66
2022-10-17T18:26:39.991Z,98935.72
2022-10-17T18:29:07.224Z,98933.50
2022-10-17T18:31:36.941Z,98924.28
2022-10-17T18:34:05.340Z,98932.75
2022-10-17T18:36:33.726Z,98942.66
2022-10-17T18:39:01.403Z,98941.91
2022-10-17T18:41:28.720Z,98938.97
2022-10-17T18:43:56.922Z,98935.81
2022-10-17T18:46:36.514Z,98933.78
2022-10-17T18:49:03.785Z,98942.41
2022-10-17T18:51:31.379Z,98953.28
2022-10-17T18:53:58.819Z,98950.34
2022-10-17T18:56:26.223Z,98948.47
2022-10-17T18:58:53.642Z,98948.22
2022-10-17T19:01:23.427Z,98955.78
2022-10-17T19:03:52.221Z,98965.16
2022-10-17T19:06:21.296Z,98968.41
2022-10-17T19:08:48.953Z,98964.84
2022-10-17T19:11:26.383Z,98967.06
2022-10-17T19:13:54.111Z,98966.25
2022-10-17T19:16:33.226Z,98972.66
2022-10-17T19:19:06.778Z,98970.19
2022-10-17T19:21:34.653Z,98970.16
2022-10-17T19:24:05.083Z,98967.50
2022-10-17T19:26:33.468Z,98961.38
2022-10-17T19:29:00.997Z,98968.31
2022-10-17T19:31:29.765Z,98967.19
2022-10-17T19:33:57.253Z,98973.03
2022-10-17T19:36:30.653Z,98969.34
2022-10-17T19:39:22.865Z,98972.09
2022-10-17T19:41:50.328Z,98973.94
2022-10-17T19:44:18.120Z,98967.06
2022-10-17T19:46:46.783Z,98967.53
2022-10-17T19:49:14.183Z,98976.13
2022-10-17T19:51:41.788Z,98984.72
2022-10-17T19:54:09.759Z,98975.28
2022-10-17T19:56:38.182Z,98981.88
2022-10-17T19:59:06.532Z,98977.22
2022-10-17T20:01:38.628Z,98973.78
2022-10-17T20:04:06.886Z,98983.13
2022-10-17T20:06:34.348Z,98980.88
2022-10-17T20:09:01.541Z,98984.09
2022-10-17T20:11:28.847Z,98994.38
2022-10-17T20:13:56.698Z,98990.53
2022-10-17T20:16:26.001Z,98996.25
2022-10-17T20:18:54.994Z,99002.31
2022-10-17T20:21:27.172Z,98994.78
2022-10-17T20:23:54.715Z,98991.81
2022-10-17T20:26:36.584Z,98990.88
2022-10-17T20:29:11.601Z,98991.94
2022-10-17T20:31:40.110Z,98995.78
2022-10-17T20:34:07.478Z,98998.84
2022-10-17T20:36:37.478Z,99001.19
2022-10-17T20:39:06.083Z,99002.25
2022-10-17T20:41:33.773Z,99004.41
2022-10-17T20:44:00.972Z,99006.19
2022-10-17T20:49:17.816Z,99023.91
2022-10-17T20:51:45.136Z,99020.97
2022-10-17T20:54:12.913Z,99008.53
2022-10-17T20:56:40.178Z,99013.13
2022-10-17T20:59:11.441Z,99017.69
2022-10-17T21:01:38.591Z,99015.44
2022-10-17T21:04:33.371Z,99019.59
2022-10-17T21:06:53.592Z,99027.13
2022-10-17T21:09:21.739Z,99031.91
2022-10-17T21:11:51.529Z,99024.69
2022-10-17T21:14:19.403Z,99021.50
2022-10-17T21:16:47.119Z,99019.78
2022-10-17T21:19:15.390Z,99024.34
2022-10-17T21:21:45.003Z,99020.66
2022-10-17T21:24:17.075Z,99029.00
2022-10-17T21:26:45.896Z,99030.59
2022-10-17T21:29:14.011Z,99028.44
2022-10-17T21:31:43.609Z,99034.06
2022-10-17T21:34:17.533Z,99029.38
2022-10-17T21:36:45.232Z,99021.63
2022-10-17T21:39:13.179Z,99028.09
2022-10-17T21:41:40.838Z,99031.38
2022-10-17T21:44:15.412Z,99025.13
2022-10-17T21:46:43.054Z,99026.41
2022-10-17T21:49:15.052Z,99027.03
2022-10-17T21:51:43.017Z,99026.81
2022-10-17T21:54:10.921Z,99027.34
2022-10-17T21:56:38.102Z,99026.81
2022-10-17T21:59:05.550Z,99025.09
2022-10-17T22:01:37.755Z,99018.63
2022-10-17T22:04:07.617Z,99020.22
2022-10-17T22:06:40.255Z,99026.75
2022-10-17T22:09:22.770Z,99036.28
2022-10-17T22:11:53.281Z,99026.88
2022-10-17T22:14:21.850Z,99023.25
2022-10-17T22:16:49.547Z,99024.06
2022-10-17T22:19:19.758Z,99025.63
2022-10-17T22:21:47.056Z,99023.59
2022-10-17T22:24:16.188Z,99030.16
2022-10-17T22:26:44.618Z,99026.69
2022-10-17T22:29:12.172Z,99032.19
2022-10-17T22:31:39.732Z,99025.94
2022-10-17T22:34:07.593Z,99033.25
2022-10-17T22:36:35.362Z,99028.22
2022-10-17T22:39:03.739Z,99034.06
2022-10-17T22:41:31.197Z,99037.13
2022-10-17T22:43:58.657Z,99035.91
2022-10-17T22:46:26.237Z,99046.94
2022-10-17T22:48:53.454Z,99040.91
2022-10-17T22:51:20.818Z,99037.72
2022-10-17T22:53:48.234Z,99038.00
2022-10-17T22:56:17.932Z,99035.03
2022-10-17T22:58:45.982Z,99046.03
2022-10-17T23:01:16.284Z,99040.84
2022-10-17T23:03:43.913Z,99037.84
2022-10-17T23:06:11.660Z,99041.13
2022-10-17T23:08:39.542Z,99045.69
2022-10-17T23:11:07.417Z,99049.47
2022-10-17T23:13:35.631Z,99034.75
2022-10-17T23:16:03.797Z,99039.06
2022-10-17T23:21:03.800Z,99024.63
2022-10-17T23:23:31.154Z,99029.38
2022-10-17T23:26:09.477Z,99029.16
2022-10-17T23:28:36.947Z,99028.72
2022-10-17T23:31:19.635Z,99029.44
2022-10-17T23:33:48.405Z,99028.72
2022-10-17T23:36:18.024Z,99030.97
2022-10-17T23:38:46.766Z,99023.03
2022-10-17T23:41:14.488Z,99035.28
2022-10-17T23:43:42.050Z,99036.84
2022-10-17T23:46:09.674Z,99039.38
2022-10-17T23:48:38.517Z,99038.63
2022-10-17T23:51:07.556Z,99032.59
2022-10-17T23:53:35.552Z,99034.09
2022-10-17T23:56:02.845Z,99026.88
2022-10-17T23:58:30.161Z,99022.94
